createdAt,value
2022-09-12T00:01:45.060Z,7.1
2022-09-12T00:03:46.833Z,7.5
2022-09-12T00:05:48.667Z,8.2
2022-09-12T00:07:53.758Z,8.3
2022-09-12T00:09:55.594Z,7.9
2022-09-12T00:11:57.446Z,7.1
2022-09-12T00:13:59.278Z,7.6
2022-09-12T00:16:01.225Z,8.8
2022-09-12T00:20:04.771Z,8.1
2022-09-12T00:22:09.849Z,8.4
2022-09-12T00:28:15.377Z,7.1
2022-09-12T00:30:17.198Z,9.3
2022-09-12T00:32:19.032Z,8.5
2022-09-12T00:34:20.859Z,8.4
2022-09-12T00:36:25.934Z,8.5
2022-09-12T00:38:27.779Z,7.7
2022-09-12T00:40:29.611Z,6.7
2022-09-12T00:41:32.113Z,7
2022-09-12T00:43:33.965Z,7.6
2022-09-12T00:45:35.862Z,7.4
2022-09-12T00:47:37.620Z,6.7
2022-09-12T00:49:42.716Z,8.5
2022-09-12T00:51:44.556Z,7.6
2022-09-12T00:53:46.367Z,6.6
2022-09-12T00:55:48.216Z,9.2
2022-09-12T00:57:50.028Z,6.9
2022-09-12T00:59:51.835Z,7.9
2022-09-12T01:01:53.777Z,8.5
2022-09-12T01:03:58.738Z,11.2
2022-09-12T01:06:00.622Z,8.1
2022-09-12T01:08:02.447Z,7.2
2022-09-12T01:10:04.280Z,6.4
2022-09-12T01:12:06.090Z,7.5
2022-09-12T01:14:07.926Z,7.5
2022-09-12T01:16:09.791Z,8.4
2022-09-12T01:18:14.792Z,8
2022-09-12T01:20:16.633Z,7.2
2022-09-12T01:22:18.464Z,6.9
2022-09-12T01:30:25.751Z,9.9
2022-09-12T01:37:36.991Z,9.1
2022-09-12T01:39:38.902Z,10.4
2022-09-12T01:41:40.656Z,9.8
2022-09-12T01:43:42.491Z,9.9
2022-09-12T01:45:47.621Z,11
2022-09-12T01:47:49.369Z,11.1
2022-09-12T01:49:51.203Z,10.7
2022-09-12T01:51:53.017Z,11.1
2022-09-12T01:53:54.878Z,10.9
2022-09-12T01:55:56.698Z,10.1
2022-09-12T01:57:58.531Z,10.2
2022-09-12T02:00:03.597Z,12.1
2022-09-12T02:02:05.464Z,10.8
2022-09-12T02:04:07.242Z,9.4
2022-09-12T02:06:09.065Z,10
2022-09-12T02:08:10.895Z,8.4
2022-09-12T02:10:12.712Z,10.4
2022-09-12T02:12:14.567Z,8.6
2022-09-12T02:14:19.624Z,9.4
2022-09-12T02:16:21.467Z,10.3
2022-09-12T02:18:23.250Z,9.4
2022-09-12T02:20:44.296Z,8.6
2022-09-12T02:22:26.917Z,10.1
2022-09-12T02:24:28.745Z,9.9
2022-09-12T02:26:30.560Z,10.4
2022-09-12T02:32:39.290Z,9.5
2022-09-12T02:35:08.079Z,10.7
2022-09-12T02:37:09.880Z,11.1
2022-09-12T02:39:11.699Z,9.7
2022-09-12T02:41:16.740Z,10.3
2022-09-12T02:43:18.573Z,10.1
2022-09-12T02:45:20.377Z,8.9
2022-09-12T02:47:22.211Z,7.4
2022-09-12T02:49:24.036Z,7.3
2022-09-12T02:51:25.871Z,6.4
2022-09-12T02:57:34.572Z,7.1
2022-09-12T03:03:43.292Z,6.8
2022-09-12T03:05:41.849Z,8.5
2022-09-12T03:07:43.674Z,7.3
2022-09-12T03:09:48.746Z,7.6
2022-09-12T03:11:50.569Z,7.4
2022-09-12T03:13:52.383Z,8
2022-09-12T03:15:54.209Z,9
2022-09-12T03:17:56.019Z,8.9
2022-09-12T03:19:57.841Z,9.9
2022-09-12T03:24:04.715Z,10.8
2022-09-12T03:26:06.547Z,10.5
2022-09-12T03:28:08.353Z,11.1
2022-09-12T03:29:10.885Z,11.7
2022-09-12T03:33:14.539Z,9.9
2022-09-12T03:35:19.790Z,11.3
2022-09-12T03:37:21.423Z,11.1
2022-09-12T03:39:23.236Z,10.9
2022-09-12T03:41:25.186Z,11.5
2022-09-12T03:43:26.887Z,11.3
2022-09-12T03:45:28.736Z,11.1
2022-09-12T03:47:30.520Z,10.6
2022-09-12T03:51:37.399Z,13.8
2022-09-12T03:53:39.205Z,11.9
2022-09-12T03:55:41.035Z,12.9
2022-09-12T03:57:42.846Z,11.1
2022-09-12T03:59:44.656Z,11.5
2022-09-12T04:01:46.495Z,11.6
2022-09-12T04:03:48.313Z,10.8
2022-09-12T04:05:53.350Z,12.5
2022-09-12T04:07:55.170Z,13
2022-09-12T04:09:57.000Z,13.3
2022-09-12T04:11:58.821Z,11.1
2022-09-12T04:14:00.639Z,12.4
2022-09-12T04:16:02.469Z,11.5
2022-09-12T04:18:06.073Z,12.1
2022-09-12T04:20:09.332Z,12.4
2022-09-12T04:24:12.970Z,10.1
2022-09-12T04:25:15.496Z,11.8
2022-09-12T04:27:17.302Z,12.5
2022-09-12T04:29:19.132Z,11
2022-09-12T04:31:20.939Z,15.1
2022-09-12T04:33:26.009Z,12.9
2022-09-12T04:35:27.831Z,12.5
2022-09-12T04:37:29.645Z,13.4
2022-09-12T04:39:31.471Z,13.2
2022-09-12T04:41:33.278Z,14.8
2022-09-12T04:43:35.101Z,12.9
2022-09-12T04:45:36.952Z,12.7
2022-09-12T04:47:41.955Z,15.1
2022-09-12T04:49:43.786Z,13.2
2022-09-12T04:51:45.605Z,15.4
2022-09-12T04:53:47.417Z,13.3
2022-09-12T04:55:49.218Z,15.7
2022-09-12T04:57:51.038Z,13.3
2022-09-12T04:59:52.887Z,15.3
2022-09-12T05:01:58.004Z,13.6
2022-09-12T05:03:59.754Z,15.3
2022-09-12T05:06:01.571Z,14
2022-09-12T05:08:03.381Z,16.1
2022-09-12T05:10:05.207Z,18.1
2022-09-12T05:12:07.015Z,16.3
2022-09-12T05:14:08.856Z,14.7
2022-09-12T05:16:13.971Z,13.8
2022-09-12T05:18:15.714Z,15.3
2022-09-12T05:20:17.555Z,15.9
2022-09-12T05:21:20.062Z,15.3
2022-09-12T05:23:21.887Z,16.7
2022-09-12T05:25:23.706Z,16.6
2022-09-12T05:27:25.505Z,15.7
2022-09-12T05:31:33.932Z,13.3
2022-09-12T05:33:35.723Z,11.2
2022-09-12T05:35:37.556Z,12.5
2022-09-12T05:37:39.356Z,12
2022-09-12T05:41:43.000Z,13
2022-09-12T05:43:48.073Z,12.4
2022-09-12T05:45:49.915Z,13.1
2022-09-12T05:47:51.684Z,11.3
2022-09-12T05:49:53.506Z,12.7
2022-09-12T05:51:55.316Z,13.3
2022-09-12T05:53:57.133Z,14.3
2022-09-12T05:55:58.954Z,15
2022-09-12T05:58:04.044Z,17.3
2022-09-12T06:02:07.732Z,16.6
2022-09-12T06:04:09.465Z,15.5
2022-09-12T06:06:11.300Z,20.1
2022-09-12T06:08:13.112Z,17.3
2022-09-12T06:10:14.935Z,17.2
2022-09-12T06:18:52.394Z,22.1
2022-09-12T06:20:54.225Z,19.1
2022-09-12T06:22:56.065Z,22.1
2022-09-12T06:25:01.292Z,20.4
2022-09-12T06:29:04.772Z,22.1
2022-09-12T06:31:06.618Z,20.7
2022-09-12T06:33:08.445Z,20.8
2022-09-12T06:39:17.137Z,22.4
2022-09-12T06:41:18.955Z,19
2022-09-12T06:47:24.441Z,19.6
2022-09-12T06:49:26.271Z,20.7
2022-09-12T06:51:28.099Z,20.5
2022-09-12T06:55:35.005Z,21.7
2022-09-12T06:57:36.836Z,21.8
2022-09-12T06:59:38.676Z,23.5
2022-09-12T07:01:40.590Z,21
2022-09-12T07:03:42.334Z,22.3
2022-09-12T07:05:44.170Z,22.7
2022-09-12T07:07:49.230Z,20.7
2022-09-12T07:09:51.069Z,22.6
2022-09-12T07:11:52.899Z,21.3
2022-09-12T07:12:55.429Z,18.6
2022-09-12T07:14:57.266Z,25.1
2022-09-12T07:16:59.150Z,18.9
2022-09-12T07:19:00.934Z,20.7
2022-09-12T07:21:06.016Z,18.8
2022-09-12T07:23:07.856Z,20.9
2022-09-12T07:25:09.697Z,18.3
2022-09-12T07:27:11.532Z,18
2022-09-12T07:29:35.419Z,19.2
2022-09-12T07:31:15.352Z,21.2
2022-09-12T07:33:17.057Z,17.8
2022-09-12T07:35:22.153Z,19.4
2022-09-12T07:37:23.993Z,17.6
2022-09-12T07:39:25.816Z,18.9
2022-09-12T07:49:38.238Z,17.2
2022-09-12T07:51:40.080Z,16.8
2022-09-12T07:53:41.988Z,17.7
2022-09-12T07:55:43.739Z,16
2022-09-12T07:57:45.574Z,15.9
2022-09-12T07:59:52.897Z,14.8
2022-09-12T08:01:49.434Z,16.7
2022-09-12T08:03:54.327Z,17.3
2022-09-12T08:05:56.153Z,17
2022-09-12T08:07:57.976Z,20
2022-09-12T08:13:04.180Z,17.2
2022-09-12T08:15:05.987Z,16.4
2022-09-12T08:17:11.078Z,18.2
2022-09-12T08:19:12.902Z,16.4
2022-09-12T08:21:14.734Z,17.1
2022-09-12T08:23:16.555Z,16.1
2022-09-12T08:29:21.997Z,15.8
2022-09-12T08:31:27.097Z,17.9
2022-09-12T08:33:28.895Z,17.2
2022-09-12T08:35:30.731Z,17.6
2022-09-12T08:37:32.548Z,15.2
2022-09-12T08:39:34.378Z,17.7
2022-09-12T08:41:36.167Z,18.9
2022-09-12T08:43:37.987Z,16.4
2022-09-12T08:45:43.084Z,17.2
2022-09-12T08:47:44.871Z,17
2022-09-12T08:49:46.665Z,17
2022-09-12T08:51:48.475Z,15.5
2022-09-12T08:53:50.273Z,17.1
2022-09-12T08:55:52.085Z,16.2
2022-09-12T08:57:53.906Z,15.4
2022-09-12T08:59:58.961Z,15.9
2022-09-12T09:02:00.815Z,14.9
2022-09-12T09:04:02.547Z,15.5
2022-09-12T09:05:05.083Z,14.5
2022-09-12T09:09:08.639Z,15.2
2022-09-12T09:13:15.534Z,15.4
2022-09-12T09:15:17.303Z,13.9
2022-09-12T09:17:19.086Z,12.7
2022-09-12T09:19:20.878Z,13.1
2022-09-12T09:23:24.425Z,13.7
2022-09-12T09:25:26.103Z,12.8
2022-09-12T09:29:32.600Z,11.2
2022-09-12T09:31:34.410Z,13.3
2022-09-12T09:33:36.119Z,11.5
2022-09-12T09:35:37.707Z,10.4
2022-09-12T09:37:39.350Z,9.9
2022-09-12T09:39:41.061Z,9.3
2022-09-12T09:41:45.865Z,7.4
2022-09-12T09:43:47.513Z,7.2
2022-09-12T09:45:49.203Z,6.8
2022-09-12T09:47:50.831Z,7.1
2022-09-12T09:49:52.537Z,6.8
2022-09-12T09:51:56.608Z,5.1
2022-09-12T09:53:55.780Z,5
2022-09-12T09:56:00.631Z,4.5
2022-09-12T09:58:02.264Z,3.9
2022-09-12T10:00:03.931Z,4
2022-09-12T10:02:32.401Z,3.2
2022-09-12T10:04:38.011Z,3.2
2022-09-12T10:06:35.601Z,3.5
2022-09-12T10:08:40.419Z,4.2
2022-09-12T10:10:42.067Z,3
2022-09-12T10:12:43.707Z,3.6
2022-09-12T10:14:45.319Z,3.7
2022-09-12T10:16:46.949Z,2.2
2022-09-12T10:18:48.564Z,2.9
2022-09-12T10:20:50.176Z,4.2
2022-09-12T10:22:55.000Z,3.3
2022-09-12T10:24:56.617Z,4.5
2022-09-12T10:26:58.236Z,3.7
2022-09-12T10:28:59.851Z,2.2
2022-09-12T10:31:01.573Z,3.5
2022-09-12T10:33:03.076Z,2.8
2022-09-12T10:35:04.703Z,2.3
2022-09-12T10:37:09.507Z,2.8
2022-09-12T10:39:11.100Z,2.2
2022-09-12T10:43:14.299Z,2.3
2022-09-12T10:45:15.927Z,3.2
2022-09-12T10:47:17.542Z,2.7
2022-09-12T10:51:23.942Z,2.1
2022-09-12T10:56:29.536Z,2.6
2022-09-12T10:58:31.117Z,1.7
2022-09-12T11:00:32.717Z,2.6
2022-09-12T11:02:34.413Z,2.5
2022-09-12T11:04:39.102Z,2.2
2022-09-12T11:06:40.710Z,2.5
2022-09-12T11:08:42.300Z,2.4
2022-09-12T11:10:44.550Z,1.8
2022-09-12T11:12:45.503Z,1.2
2022-09-12T11:14:47.076Z,1.7
2022-09-12T11:16:48.680Z,1.7
2022-09-12T11:18:55.027Z,1.9
2022-09-12T11:20:56.572Z,2.1
2022-09-12T11:22:58.163Z,1.6
2022-09-12T11:24:59.768Z,2.1
2022-09-12T11:29:02.975Z,2.2
2022-09-12T11:31:04.556Z,2.2
2022-09-12T11:33:09.331Z,1.7
2022-09-12T11:35:15.164Z,1.4
2022-09-12T11:37:16.170Z,1.6
2022-09-12T11:39:14.110Z,2
2022-09-12T11:41:15.695Z,2.1
2022-09-12T11:43:17.259Z,1.2
2022-09-12T11:45:18.843Z,1.3
2022-09-12T11:47:23.641Z,2.1
2022-09-12T11:49:25.242Z,0.9
2022-09-12T11:51:26.818Z,2
2022-09-12T11:52:29.215Z,1.2
2022-09-12T11:56:32.386Z,1.1
2022-09-12T11:58:33.974Z,1.4
2022-09-12T12:00:38.753Z,2
2022-09-12T12:02:40.401Z,1.8
2022-09-12T12:08:45.158Z,1.5
2022-09-12T12:16:54.622Z,1.5
2022-09-12T12:18:56.204Z,1.6
2022-09-12T12:29:07.288Z,1.6
2022-09-12T12:31:08.913Z,2.1
2022-09-12T12:39:15.212Z,2.1
2022-09-12T12:47:24.785Z,1.8
2022-09-12T12:48:27.204Z,1.5
2022-09-12T12:50:28.780Z,1.7
2022-09-12T12:52:30.380Z,3.6
2022-09-12T12:54:31.980Z,6.7
2022-09-12T12:56:36.785Z,1.9
2022-09-12T12:58:38.541Z,2.5
2022-09-12T13:00:40.167Z,3.5
2022-09-12T13:02:41.685Z,1.9
2022-09-12T13:06:44.862Z,2.2
2022-09-12T13:08:46.709Z,2.3
2022-09-12T13:10:51.268Z,2.5
2022-09-12T13:12:52.895Z,2.2
2022-09-12T13:16:56.174Z,2.6
2022-09-12T13:18:57.965Z,2.1
2022-09-12T13:20:59.443Z,2.9
2022-09-12T13:23:01.061Z,2.2
2022-09-12T13:25:05.909Z,2.5
2022-09-12T13:27:07.546Z,2.7
2022-09-12T13:29:09.168Z,1.7
2022-09-12T13:33:12.441Z,1.8
2022-09-12T13:35:14.096Z,2.1
2022-09-12T13:39:20.543Z,2.1
2022-09-12T13:41:22.207Z,3.3
2022-09-12T13:43:23.835Z,2.4
2022-09-12T13:49:55.480Z,2
2022-09-12T13:52:00.301Z,1.7
2022-09-12T13:54:01.930Z,2.3
2022-09-12T13:58:05.226Z,3
2022-09-12T14:00:06.874Z,2.1
2022-09-12T14:02:08.574Z,5.9
2022-09-12T14:04:10.167Z,2.2
2022-09-12T14:06:14.967Z,2.8
2022-09-12T14:08:16.630Z,1.9
2022-09-12T14:10:18.268Z,2.6
2022-09-12T14:12:19.919Z,1.9
2022-09-12T14:14:21.573Z,2.5
2022-09-12T14:16:23.220Z,1.6
2022-09-12T14:18:24.858Z,2.2
2022-09-12T14:20:29.709Z,1.8
2022-09-12T14:22:31.355Z,1.9
2022-09-12T14:32:39.626Z,2.4
2022-09-12T14:34:44.467Z,2.2
2022-09-12T14:36:46.106Z,1.9
2022-09-12T14:38:47.890Z,3
2022-09-12T14:39:50.239Z,1.8
2022-09-12T14:41:51.867Z,8.9
2022-09-12T14:43:53.524Z,2.4
2022-09-12T14:45:55.220Z,2
2022-09-12T14:48:00.033Z,4.5
2022-09-12T14:50:01.802Z,2.2
2022-09-12T14:52:03.345Z,2.6
2022-09-12T14:54:05.006Z,2.1
2022-09-12T14:56:06.793Z,1.9
2022-09-12T14:58:08.331Z,2.4
2022-09-12T15:00:09.996Z,2.3
2022-09-12T15:02:14.850Z,2.2
2022-09-12T15:04:16.524Z,2.7
2022-09-12T15:06:18.349Z,13.9
2022-09-12T15:08:19.813Z,3.1
2022-09-12T15:10:21.487Z,3.1
2022-09-12T15:12:23.150Z,2.6
2022-09-12T15:14:24.800Z,2.3
2022-09-12T15:16:29.764Z,2
2022-09-12T15:18:31.317Z,2.2
2022-09-12T15:20:32.974Z,2.2
2022-09-12T15:22:34.640Z,35.9
2022-09-12T15:24:36.302Z,3.5
2022-09-12T15:26:37.978Z,1.7
2022-09-12T15:28:39.642Z,2.3
2022-09-12T15:30:44.554Z,2.2
2022-09-12T15:32:46.131Z,1.6
2022-09-12T15:34:47.816Z,2.3
2022-09-12T15:35:50.254Z,2
2022-09-12T15:37:51.886Z,1.8
2022-09-12T15:41:55.224Z,2
2022-09-12T15:44:00.055Z,2.2
2022-09-12T15:50:05.080Z,2.9
2022-09-12T15:56:10.083Z,4.5
2022-09-12T15:58:14.921Z,2.6
2022-09-12T16:00:16.599Z,1.7
2022-09-12T16:04:19.932Z,2.1
2022-09-12T16:06:21.614Z,2.2
2022-09-12T16:08:23.294Z,2.7
2022-09-12T16:10:24.970Z,3
2022-09-12T16:12:29.832Z,2.4
2022-09-12T16:14:31.508Z,2.2
2022-09-12T16:16:33.205Z,3.3
2022-09-12T16:18:34.976Z,2.7
2022-09-12T16:26:44.878Z,2.2
2022-09-12T16:28:46.576Z,2.3
2022-09-12T16:31:50.678Z,2.3
2022-09-12T16:33:52.500Z,1.3
2022-09-12T16:35:54.029Z,1.6
2022-09-12T16:37:55.705Z,2.4
2022-09-12T16:40:00.719Z,1.6
2022-09-12T16:42:02.251Z,2
2022-09-12T16:44:04.049Z,2.3
2022-09-12T16:46:05.684Z,2.3
2022-09-12T16:48:07.317Z,2
2022-09-12T16:50:08.992Z,3.9
2022-09-12T16:52:10.666Z,2.6
2022-09-12T16:54:15.530Z,5
2022-09-12T16:56:17.207Z,2.8
2022-09-12T16:58:18.916Z,1.7
2022-09-12T17:00:20.589Z,3.8
2022-09-12T17:02:22.344Z,2.8
2022-09-12T17:04:24.112Z,2.9
2022-09-12T17:06:25.657Z,2.2
2022-09-12T17:08:30.533Z,1.9
2022-09-12T17:10:33.796Z,2.8
2022-09-12T17:12:35.463Z,2.3
2022-09-12T17:14:37.162Z,1.4
2022-09-12T17:16:38.858Z,2
2022-09-12T17:18:40.557Z,3.4
2022-09-12T17:20:42.252Z,3.4
2022-09-12T17:24:48.847Z,2.1
2022-09-12T17:26:50.632Z,1.9
2022-09-12T17:29:19.336Z,2.6
2022-09-12T17:35:27.826Z,4.7
2022-09-12T17:37:29.533Z,5.4
2022-09-12T17:39:31.230Z,6.2
2022-09-12T17:41:32.947Z,5.4
2022-09-12T17:43:34.643Z,5.2
2022-09-12T17:45:36.354Z,6
2022-09-12T17:47:38.083Z,7.2
2022-09-12T17:49:43.162Z,7.1
2022-09-12T17:51:44.867Z,4.2
2022-09-12T17:57:50.008Z,2.4
2022-09-12T17:59:51.733Z,4.1
2022-09-12T18:01:53.543Z,2.9
2022-09-12T18:03:58.321Z,2.6
2022-09-12T18:06:00.020Z,3.4
2022-09-12T18:08:01.782Z,3.4
2022-09-12T18:14:06.903Z,4.3
2022-09-12T18:23:19.588Z,4.1
2022-09-12T18:25:21.414Z,4
2022-09-12T18:27:23.228Z,2.9
2022-09-12T18:31:30.276Z,2.7
2022-09-12T18:33:31.986Z,2.5
2022-09-12T18:39:37.452Z,2.2
2022-09-12T18:41:39.279Z,2.4
2022-09-12T18:43:41.106Z,2.7
2022-09-12T18:47:48.032Z,4.5
2022-09-12T18:49:49.749Z,2.6
2022-09-12T19:06:06.906Z,3.2
2022-09-12T19:08:08.701Z,2.5
2022-09-12T19:10:10.525Z,3.3
2022-09-12T19:12:12.366Z,2.7
2022-09-12T19:14:17.451Z,2.9
2022-09-12T19:16:19.322Z,3.2
2022-09-12T19:18:21.101Z,3.1
2022-09-12T19:19:23.660Z,2.9
2022-09-12T19:25:29.144Z,3.6
2022-09-12T19:27:34.266Z,3.1
2022-09-12T19:31:37.987Z,3.2
2022-09-12T19:33:39.744Z,4.2
2022-09-12T19:35:41.588Z,3.5
2022-09-12T19:37:43.404Z,3.6
2022-09-12T19:39:45.306Z,3.7
2022-09-12T19:41:50.337Z,3.8
2022-09-12T19:43:52.175Z,3.4
2022-09-12T19:45:54.009Z,4.2
2022-09-12T19:47:55.854Z,2.8
2022-09-12T19:49:57.668Z,3.3
2022-09-12T19:51:59.506Z,3.7
2022-09-12T19:54:01.339Z,4.1
2022-09-12T19:58:08.331Z,3.3
2022-09-12T20:00:10.178Z,4.3
2022-09-12T20:02:12.156Z,3
2022-09-12T20:08:17.535Z,4
2022-09-12T20:10:22.600Z,4
2022-09-12T20:12:24.450Z,4.1
2022-09-12T20:14:26.336Z,4.2
2022-09-12T20:15:28.890Z,3.7
2022-09-12T20:17:30.740Z,5.3
2022-09-12T20:19:32.583Z,6.9
2022-09-12T20:21:34.404Z,5.3
2022-09-12T20:23:39.538Z,3.8
2022-09-12T20:25:41.357Z,4.5
2022-09-12T20:27:43.172Z,4.3
2022-09-12T20:29:45.156Z,3.9
2022-09-12T20:31:46.862Z,3.3
2022-09-12T20:33:51.830Z,3.5
2022-09-12T20:35:50.536Z,2.7
2022-09-12T20:37:55.634Z,3.3
2022-09-12T20:39:57.581Z,4
2022-09-12T20:41:59.309Z,3.7
2022-09-12T20:44:01.160Z,2.8
2022-09-12T20:46:03.049Z,3.2
2022-09-12T20:48:04.832Z,4.9
2022-09-12T20:50:06.830Z,3.9
2022-09-12T20:52:11.756Z,4.3
2022-09-12T20:54:13.581Z,6.1
2022-09-12T20:56:15.423Z,9.2
2022-09-12T20:58:17.262Z,15.9
2022-09-12T21:00:19.135Z,4.5
2022-09-12T21:02:21.150Z,4.4
2022-09-12T21:04:22.784Z,19
2022-09-12T21:06:27.883Z,4.2
2022-09-12T21:08:29.718Z,3.9
2022-09-12T21:10:31.668Z,5.1
2022-09-12T21:13:00.236Z,4.3
2022-09-12T21:15:02.057Z,4.4
2022-09-12T21:17:03.921Z,4.6
2022-09-12T21:19:09.004Z,5.9
2022-09-12T21:21:10.850Z,3.4
2022-09-12T21:25:14.529Z,5
2022-09-12T21:29:18.214Z,8.1
2022-09-12T21:31:20.171Z,5.1
2022-09-12T21:37:28.815Z,4
2022-09-12T21:39:30.660Z,4.1
2022-09-12T21:41:32.497Z,3.7
2022-09-12T21:43:34.349Z,3.6
2022-09-12T21:45:36.179Z,3.9
2022-09-12T21:47:41.292Z,4.6
2022-09-12T21:49:43.137Z,3.9
2022-09-12T21:51:44.967Z,4.4
2022-09-12T21:53:46.812Z,3.4
2022-09-12T21:55:48.663Z,2.9
2022-09-12T21:57:50.524Z,3.8
2022-09-12T21:59:52.362Z,4.3
2022-09-12T22:01:57.561Z,4.1
2022-09-12T22:03:59.323Z,3.8
2022-09-12T22:06:01.167Z,3.5
2022-09-12T22:07:03.714Z,2.7
2022-09-12T22:09:05.566Z,4.1
2022-09-12T22:11:07.412Z,3.5
2022-09-12T22:13:09.243Z,4.5
2022-09-12T22:15:38.783Z,4
2022-09-12T22:19:18.013Z,3.6
2022-09-12T22:21:19.864Z,5
2022-09-12T22:23:24.828Z,3.9
2022-09-12T22:25:23.547Z,3.7
2022-09-12T22:27:25.381Z,3.4
2022-09-12T22:29:30.495Z,3.2
2022-09-12T22:31:32.356Z,4.2
2022-09-12T22:33:34.182Z,3.8
2022-09-12T22:35:36.015Z,2.7
2022-09-12T22:37:37.865Z,3.8
2022-09-12T22:39:39.736Z,3
2022-09-12T22:41:41.518Z,4
2022-09-12T22:43:46.626Z,3.3
2022-09-12T22:45:48.476Z,3.5
2022-09-12T22:47:50.301Z,3.7
2022-09-12T22:49:52.139Z,3
2022-09-12T22:51:53.996Z,4.7
2022-09-12T22:53:55.839Z,3.1
2022-09-12T22:55:57.686Z,3.9
2022-09-12T22:58:02.764Z,2.9
2022-09-12T23:00:04.634Z,3.3
2022-09-12T23:02:08.017Z,3.4
2022-09-12T23:09:16.034Z,3.4
2022-09-12T23:11:21.161Z,3.4
2022-09-12T23:13:22.983Z,3.5
2022-09-12T23:15:24.826Z,3.1
2022-09-12T23:19:28.500Z,2.9
2022-09-12T23:21:30.325Z,4.2
2022-09-12T23:27:39.116Z,3.5
2022-09-12T23:33:44.629Z,3.3
2022-09-12T23:35:46.458Z,4
2022-09-12T23:37:48.311Z,3.1
2022-09-12T23:39:53.486Z,3.3
2022-09-12T23:41:55.250Z,3.4
2022-09-12T23:43:57.086Z,4.2
2022-09-12T23:45:59.000Z,3.5
2022-09-12T23:48:00.741Z,3.9
2022-09-12T23:50:02.589Z,3.5
2022-09-12T23:52:04.427Z,3.4
2022-09-12T23:54:09.521Z,3.5
2022-09-12T23:56:11.360Z,3.7
2022-09-12T23:58:13.218Z,4.4
